createdAt,value
2023-02-21T00:01:06.432Z,10.00
2023-02-21T00:04:12.452Z,10.10
2023-02-21T00:07:18.628Z,10.30
2023-02-21T00:10:27.875Z,10.10
2023-02-21T00:13:33.735Z,10.10
2023-02-21T00:16:39.887Z,9.70
2023-02-21T00:19:45.892Z,9.50
2023-02-21T00:22:51.806Z,9.60
2023-02-21T00:25:59.331Z,9.90
2023-02-21T00:29:05.219Z,10.10
2023-02-21T00:32:11.997Z,10.10
2023-02-21T00:35:17.939Z,9.90
2023-02-21T00:38:26.139Z,10.10
2023-02-21T00:41:33.784Z,10.30
2023-02-21T00:50:52.171Z,10.70
2023-02-21T00:53:58.218Z,10.70
2023-02-21T00:57:05.567Z,10.70
2023-02-21T01:00:11.615Z,10.50
2023-02-21T01:03:17.741Z,10.20
2023-02-21T01:06:27.950Z,9.80
2023-02-21T01:09:33.727Z,9.50
2023-02-21T01:12:41.075Z,9.30
2023-02-21T01:15:47.005Z,9.50
2023-02-21T01:18:53.382Z,9.30
2023-02-21T01:21:59.720Z,9.50
2023-02-21T01:25:07.785Z,9.70
2023-02-21T01:28:15.055Z,9.70
2023-02-21T01:31:21.115Z,9.40
2023-02-21T01:34:27.263Z,9.40
2023-02-21T01:37:33.324Z,9.30
2023-02-21T01:40:39.128Z,9.50
2023-02-21T01:43:48.011Z,9.90
2023-02-21T01:46:53.752Z,10.00
2023-02-21T01:50:00.120Z,10.10
2023-02-21T01:53:07.983Z,10.50
2023-02-21T01:56:15.548Z,10.80
2023-02-21T01:59:22.774Z,10.80
2023-02-21T02:02:33.059Z,10.70
2023-02-21T02:05:39.862Z,9.90
2023-02-21T02:08:47.549Z,9.70
2023-02-21T02:12:09.693Z,9.80
2023-02-21T02:15:19.983Z,9.40
2023-02-21T02:18:50.235Z,9.30
2023-02-21T02:22:12.441Z,9.10
2023-02-21T02:25:11.804Z,9.40
2023-02-21T02:28:32.912Z,9.60
2023-02-21T02:31:39.666Z,10.20
2023-02-21T02:34:55.077Z,10.50
2023-02-21T02:37:50.335Z,10.50
2023-02-21T02:40:51.544Z,10.60
2023-02-21T02:43:46.162Z,10.50
2023-02-21T02:46:39.438Z,10.40
2023-02-21T02:49:31.295Z,10.50
2023-02-21T02:52:21.075Z,10.50
2023-02-21T02:55:27.506Z,10.30
2023-02-21T02:58:16.899Z,9.90
2023-02-21T03:01:15.743Z,9.70
2023-02-21T03:04:30.452Z,9.20
2023-02-21T03:10:22.743Z,8.90
2023-02-21T03:13:16.648Z,9.60
2023-02-21T03:16:10.386Z,9.70
2023-02-21T03:19:02.567Z,10.00
2023-02-21T03:21:53.572Z,10.20
2023-02-21T03:24:45.617Z,10.40
2023-02-21T03:27:35.565Z,10.40
2023-02-21T03:30:24.231Z,10.20
2023-02-21T03:33:12.895Z,9.90
2023-02-21T03:36:04.174Z,10.10
2023-02-21T03:38:52.693Z,10.00
2023-02-21T03:41:42.534Z,9.10
2023-02-21T03:44:31.007Z,9.30
2023-02-21T03:47:19.495Z,9.00
2023-02-21T03:50:08.549Z,8.90
2023-02-21T03:52:57.045Z,8.80
2023-02-21T03:55:45.707Z,8.90
2023-02-21T03:58:37.469Z,9.20
2023-02-21T04:01:26.730Z,9.60
2023-02-21T04:04:15.191Z,9.80
2023-02-21T04:07:03.811Z,9.80
2023-02-21T04:09:52.244Z,9.60
2023-02-21T04:12:40.673Z,9.20
2023-02-21T04:15:30.511Z,8.90
2023-02-21T04:18:18.986Z,8.80
2023-02-21T04:21:07.734Z,8.50
2023-02-21T04:23:56.541Z,8.30
2023-02-21T04:26:45.184Z,8.40
2023-02-21T04:29:33.626Z,8.40
2023-02-21T04:32:23.596Z,8.30
2023-02-21T04:35:12.085Z,8.30
2023-02-21T04:38:00.479Z,8.10
2023-02-21T04:40:48.910Z,7.80
2023-02-21T04:43:37.414Z,7.70
2023-02-21T04:46:25.986Z,7.90
2023-02-21T04:49:16.260Z,8.00
2023-02-21T04:52:04.858Z,8.20
2023-02-21T04:54:53.329Z,8.50
2023-02-21T04:57:41.797Z,8.80
2023-02-21T05:00:30.229Z,9.00
2023-02-21T05:03:18.647Z,9.00
2023-02-21T05:06:08.752Z,8.80
2023-02-21T05:08:57.693Z,8.70
2023-02-21T05:11:46.129Z,8.30
2023-02-21T05:14:34.568Z,8.30
2023-02-21T05:17:22.998Z,8.30
2023-02-21T05:20:12.682Z,7.80
2023-02-21T05:23:13.007Z,7.80
2023-02-21T05:26:03.194Z,7.90
2023-02-21T05:28:51.831Z,7.90
2023-02-21T05:31:40.381Z,8.10
2023-02-21T05:34:28.853Z,8.30
2023-02-21T05:37:17.977Z,8.30
2023-02-21T05:40:08.828Z,8.50
2023-02-21T05:42:57.421Z,8.60
2023-02-21T05:45:46.228Z,8.40
2023-02-21T05:48:34.748Z,8.30
2023-02-21T05:51:23.529Z,7.80
2023-02-21T05:54:17.221Z,7.70
2023-02-21T05:57:07.117Z,7.70
2023-02-21T05:59:55.527Z,7.60
2023-02-21T06:02:44.021Z,7.40
2023-02-21T06:05:32.499Z,7.50
2023-02-21T06:08:20.988Z,7.60
2023-02-21T06:11:09.386Z,7.70
2023-02-21T06:14:00.842Z,7.70
2023-02-21T06:16:49.712Z,7.90
2023-02-21T06:19:38.150Z,7.60
2023-02-21T06:22:26.571Z,7.70
2023-02-21T06:25:15.423Z,7.80
2023-02-21T06:28:04.025Z,8.10
2023-02-21T06:30:53.994Z,8.10
2023-02-21T06:33:42.984Z,8.10
2023-02-21T06:36:31.764Z,7.70
2023-02-21T06:39:20.166Z,7.70
2023-02-21T06:42:08.651Z,7.90
2023-02-21T06:44:57.114Z,7.70
2023-02-21T06:47:46.944Z,7.50
2023-02-21T06:50:35.477Z,7.90
2023-02-21T06:53:24.037Z,8.30
2023-02-21T06:56:13.551Z,8.10
2023-02-21T06:59:02.066Z,8.20
2023-02-21T07:01:50.521Z,8.10
2023-02-21T07:04:40.501Z,7.50
2023-02-21T07:07:28.917Z,7.30
2023-02-21T07:10:18.008Z,7.20
2023-02-21T07:13:06.446Z,7.40
2023-02-21T07:15:55.102Z,7.40
2023-02-21T07:18:43.569Z,7.90
2023-02-21T07:21:33.476Z,7.70
2023-02-21T07:24:21.931Z,7.80
2023-02-21T07:27:10.379Z,8.00
2023-02-21T07:29:58.973Z,8.00
2023-02-21T07:32:47.518Z,8.20
2023-02-21T07:35:36.045Z,8.20
2023-02-21T07:38:27.506Z,7.90
2023-02-21T07:41:17.149Z,8.00
2023-02-21T07:44:06.102Z,8.20
2023-02-21T07:46:56.307Z,8.50
2023-02-21T07:49:44.744Z,8.70
2023-02-21T07:52:33.212Z,9.00
2023-02-21T07:55:23.127Z,9.20
2023-02-21T07:58:11.631Z,9.30
2023-02-21T08:01:00.165Z,8.90
2023-02-21T08:03:48.676Z,8.90
2023-02-21T08:06:37.367Z,8.90
2023-02-21T08:09:25.805Z,9.20
2023-02-21T08:12:15.666Z,9.10
2023-02-21T08:15:04.967Z,9.20
2023-02-21T08:17:53.653Z,9.40
2023-02-21T08:20:42.047Z,9.10
2023-02-21T08:23:30.460Z,9.10
2023-02-21T08:26:18.915Z,9.20
2023-02-21T08:29:08.873Z,9.40
2023-02-21T08:31:57.335Z,9.90
2023-02-21T08:34:46.297Z,9.80
2023-02-21T08:37:36.406Z,10.00
2023-02-21T08:40:25.582Z,10.00
2023-02-21T08:43:14.049Z,10.10
2023-02-21T09:48:16.136Z,12.90
2023-02-21T09:51:07.913Z,12.60
2023-02-21T10:22:47.616Z,14.20
2023-02-21T10:25:36.926Z,14.50
2023-02-21T10:28:27.685Z,14.60
2023-02-21T10:31:21.442Z,14.70
2023-02-21T10:34:28.159Z,14.70
2023-02-21T10:37:39.183Z,14.60
2023-02-21T10:40:33.397Z,14.70
2023-02-21T10:43:29.312Z,14.90
2023-02-21T10:46:23.978Z,15.20
2023-02-21T10:49:23.703Z,15.50
2023-02-21T10:52:14.771Z,15.50
2023-02-21T10:55:10.613Z,15.80
2023-02-21T10:58:09.794Z,15.90
2023-02-21T11:01:15.967Z,16.10
2023-02-21T11:04:08.070Z,16.30
2023-02-21T11:06:58.430Z,16.50
2023-02-21T11:09:48.313Z,16.70
2023-02-21T11:12:36.823Z,16.80
2023-02-21T11:15:25.334Z,17.10
2023-02-21T11:18:18.875Z,17.20
2023-02-21T11:21:14.405Z,17.30
2023-02-21T11:24:06.466Z,17.50
2023-02-21T11:32:37.494Z,18.00
2023-02-21T11:35:29.905Z,18.10
2023-02-21T11:38:36.935Z,18.20
2023-02-21T11:41:29.888Z,18.20
2023-02-21T11:44:27.353Z,18.70
2023-02-21T11:47:20.552Z,18.60
2023-02-21T11:50:12.645Z,18.70
2023-02-21T11:53:07.929Z,18.80
2023-02-21T11:56:04.944Z,18.80
2023-02-21T11:59:02.994Z,18.90
2023-02-21T12:02:14.984Z,19.20
2023-02-21T12:05:23.733Z,19.30
2023-02-21T12:08:41.009Z,19.50
2023-02-21T12:11:40.183Z,19.60
2023-02-21T12:15:02.929Z,19.80
2023-02-21T12:18:11.277Z,20.00
2023-02-21T12:24:05.975Z,20.30
2023-02-21T12:27:02.160Z,20.40
2023-02-21T12:30:04.583Z,20.30
2023-02-21T12:33:01.590Z,20.30
2023-02-21T12:39:25.366Z,20.50
2023-02-21T12:42:33.655Z,20.80
2023-02-21T12:45:38.334Z,21.00
2023-02-21T12:48:32.824Z,21.20
2023-02-21T12:51:25.499Z,21.30
2023-02-21T12:54:19.766Z,21.40
2023-02-21T12:57:12.472Z,21.50
2023-02-21T13:00:17.450Z,21.70
2023-02-21T13:03:17.753Z,21.70
2023-02-21T13:06:12.545Z,21.70
2023-02-21T13:20:34.431Z,21.20
2023-02-21T13:24:17.929Z,21.10
2023-02-21T13:27:41.005Z,20.70
2023-02-21T13:30:39.771Z,20.60
2023-02-21T13:33:31.538Z,20.60
2023-02-21T13:36:28.280Z,20.60
2023-02-21T13:39:21.908Z,20.70
2023-02-21T13:42:16.899Z,20.80
2023-02-21T13:45:21.715Z,20.90
2023-02-21T13:48:31.607Z,20.90
2023-02-21T13:51:47.944Z,20.90
2023-02-21T13:54:36.456Z,21.10
2023-02-21T13:57:31.959Z,21.10
2023-02-21T14:00:51.712Z,21.20
2023-02-21T14:03:40.285Z,21.20
2023-02-21T14:06:35.631Z,20.80
2023-02-21T14:09:24.232Z,20.70
2023-02-21T14:12:16.094Z,20.70
2023-02-21T14:15:07.248Z,20.80
2023-02-21T14:17:57.488Z,20.60
2023-02-21T14:20:48.604Z,20.50
2023-02-21T14:23:42.778Z,20.30
2023-02-21T14:26:46.769Z,20.10
2023-02-21T14:29:38.192Z,19.90
2023-02-21T14:32:35.768Z,19.80
2023-02-21T14:35:34.570Z,19.80
2023-02-21T14:38:26.164Z,19.90
2023-02-21T14:41:31.041Z,20.00
2023-02-21T14:44:29.296Z,19.90
2023-02-21T14:47:42.194Z,19.90
2023-02-21T14:50:40.636Z,19.70
2023-02-21T14:53:56.613Z,19.30
2023-02-21T14:57:06.048Z,19.30
2023-02-21T15:00:12.214Z,19.40
2023-02-21T15:03:09.800Z,19.60
2023-02-21T15:06:04.824Z,19.60
2023-02-21T15:08:54.962Z,19.40
2023-02-21T15:14:37.981Z,18.80
2023-02-21T15:17:27.372Z,18.80
2023-02-21T15:20:18.441Z,18.80
2023-02-21T15:23:14.791Z,18.80
2023-02-21T15:26:18.394Z,18.80
2023-02-21T15:29:08.480Z,18.50
2023-02-21T15:31:58.706Z,18.40
2023-02-21T15:34:48.535Z,18.20
2023-02-21T15:40:30.296Z,18.00
2023-02-21T15:46:26.444Z,17.20
2023-02-21T15:49:20.732Z,16.90
2023-02-21T15:52:27.496Z,16.60
2023-02-21T15:55:31.752Z,16.50
2023-02-21T15:58:25.037Z,16.20
2023-02-21T16:01:13.872Z,16.30
2023-02-21T16:04:16.697Z,16.20
2023-02-21T16:07:08.387Z,16.40
2023-02-21T16:10:01.882Z,16.40
2023-02-21T16:12:57.574Z,16.30
2023-02-21T16:15:46.300Z,16.30
2023-02-21T16:18:35.037Z,16.30
2023-02-21T16:21:27.475Z,16.30
2023-02-21T16:24:28.138Z,16.20
2023-02-21T16:27:18.483Z,16.20
2023-02-21T16:30:12.913Z,16.10
2023-02-21T16:33:02.808Z,15.90
2023-02-21T16:35:51.324Z,16.00
2023-02-21T16:38:39.819Z,16.00
2023-02-21T16:41:28.400Z,16.10
2023-02-21T16:44:16.879Z,16.00
2023-02-21T16:47:07.686Z,15.90
2023-02-21T16:49:56.187Z,15.90
2023-02-21T16:52:44.622Z,15.90
2023-02-21T16:55:33.486Z,15.90
2023-02-21T16:58:27.011Z,15.80
2023-02-21T17:01:19.602Z,15.90
2023-02-21T17:04:15.915Z,15.80
2023-02-21T17:07:09.569Z,15.70
2023-02-21T17:09:58.070Z,15.70
2023-02-21T17:12:46.564Z,15.70
2023-02-21T17:15:35.296Z,15.80
2023-02-21T17:18:24.275Z,15.70
2023-02-21T17:21:14.512Z,15.60
2023-02-21T17:24:03.306Z,15.50
2023-02-21T17:26:53.894Z,15.40
2023-02-21T17:29:42.284Z,15.40
2023-02-21T17:32:30.788Z,15.40
2023-02-21T17:35:20.848Z,15.40
2023-02-21T17:38:10.798Z,15.40
2023-02-21T17:40:59.300Z,15.40
2023-02-21T17:43:47.909Z,15.40
2023-02-21T17:46:36.409Z,15.30
2023-02-21T17:49:27.294Z,15.30
2023-02-21T17:52:15.829Z,15.30
2023-02-21T17:55:08.076Z,15.30
2023-02-21T17:57:57.587Z,15.30
2023-02-21T18:00:46.473Z,15.20
2023-02-21T18:03:34.912Z,15.20
2023-02-21T18:06:23.343Z,15.20
2023-02-21T18:09:11.872Z,15.20
2023-02-21T18:12:02.206Z,15.10
2023-02-21T18:14:50.797Z,15.00
2023-02-21T18:17:40.809Z,14.90
2023-02-21T18:20:29.251Z,15.00
2023-02-21T18:43:02.436Z,14.10
2023-02-21T18:45:53.880Z,14.20
2023-02-21T18:48:44.342Z,14.30
2023-02-21T18:51:36.358Z,14.40
2023-02-21T18:54:24.840Z,14.30
2023-02-21T18:57:13.666Z,14.30
2023-02-21T19:00:02.108Z,14.50
2023-02-21T19:56:26.592Z,13.70
2023-02-21T19:59:15.239Z,13.60
2023-02-21T20:02:04.149Z,13.70
2023-02-21T20:04:52.830Z,13.70
2023-02-21T21:09:47.544Z,13.10
2023-02-21T21:12:35.986Z,13.00
2023-02-21T21:15:25.746Z,13.00
2023-02-21T21:18:15.569Z,13.00
2023-02-21T21:38:11.768Z,12.80
2023-02-21T21:41:00.186Z,12.80
2023-02-21T21:43:48.669Z,13.10
2023-02-21T21:46:39.399Z,13.20
2023-02-21T21:49:30.476Z,13.10
2023-02-21T21:52:21.522Z,12.80
2023-02-21T22:20:36.140Z,13.10
2023-02-21T22:23:25.152Z,13.40
2023-02-21T22:26:19.533Z,13.40
2023-02-21T22:29:08.369Z,13.40
2023-02-21T22:31:56.875Z,13.50
2023-02-21T22:34:45.359Z,13.40
2023-02-21T22:37:33.836Z,13.30
2023-02-21T22:40:24.465Z,13.60
2023-02-21T22:43:14.733Z,13.30
2023-02-21T22:46:06.092Z,13.40
2023-02-21T22:48:54.687Z,13.60
2023-02-21T22:51:43.456Z,12.90
2023-02-21T22:54:32.347Z,13.50
2023-02-21T22:57:20.830Z,13.50
2023-02-21T23:00:19.258Z,13.50
2023-02-21T23:03:13.192Z,13.50
2023-02-21T23:06:02.324Z,13.40
2023-02-21T23:08:51.467Z,13.50
2023-02-21T23:11:40.699Z,13.60
2023-02-21T23:14:31.580Z,13.10
2023-02-21T23:17:22.390Z,13.00
2023-02-21T23:20:15.862Z,13.20
2023-02-21T23:23:05.469Z,13.30
2023-02-21T23:25:56.404Z,13.40
2023-02-21T23:28:44.862Z,13.40
2023-02-21T23:31:33.858Z,13.10
2023-02-21T23:34:23.669Z,12.90
2023-02-21T23:37:15.299Z,12.70
2023-02-21T23:40:04.898Z,13.00
2023-02-21T23:42:55.628Z,13.10
2023-02-21T23:45:45.192Z,13.20
2023-02-21T23:48:33.952Z,13.30
2023-02-21T23:51:26.375Z,13.30
2023-02-21T23:54:15.175Z,13.30
2023-02-21T23:57:07.634Z,13.20
2023-02-21T23:59:56.171Z,13.30
